createdAt,value
2022-09-17T00:01:08.627Z,21.40
2022-09-17T00:03:36.457Z,21.40
2022-09-17T00:06:13.410Z,21.40
2022-09-17T00:08:41.721Z,21.40
2022-09-17T00:11:15.277Z,21.40
2022-09-17T00:13:44.241Z,21.40
2022-09-17T00:16:11.657Z,21.40
2022-09-17T00:18:42.177Z,21.40
2022-09-17T00:21:19.856Z,21.30
2022-09-17T00:23:47.351Z,21.40
2022-09-17T00:26:14.662Z,21.30
2022-09-17T00:28:45.474Z,21.30
2022-09-17T00:31:12.818Z,21.30
2022-09-17T00:33:39.902Z,21.30
2022-09-17T00:36:07.550Z,21.30
2022-09-17T00:38:34.950Z,21.30
2022-09-17T00:41:02.754Z,21.40
2022-09-17T00:43:38.585Z,21.30
2022-09-17T00:46:16.836Z,21.30
2022-09-17T00:48:45.425Z,21.30
2022-09-17T00:51:16.340Z,21.30
2022-09-17T00:53:43.566Z,21.30
2022-09-17T00:56:17.721Z,21.30
2022-09-17T00:58:44.795Z,21.30
2022-09-17T01:01:11.876Z,21.30
2022-09-17T01:03:38.908Z,21.30
2022-09-17T01:06:30.738Z,21.30
2022-09-17T01:09:03.814Z,21.30
2022-09-17T01:11:43.350Z,21.30
2022-09-17T01:14:36.876Z,21.30
2022-09-17T01:17:34.937Z,21.30
2022-09-17T01:20:32.046Z,21.30
2022-09-17T01:23:30.700Z,21.30
2022-09-17T01:26:00.576Z,21.30
2022-09-17T01:28:38.692Z,21.30
2022-09-17T01:31:17.684Z,21.30
2022-09-17T01:34:08.620Z,21.30
2022-09-17T01:37:01.641Z,21.30
2022-09-17T01:39:42.024Z,21.30
2022-09-17T01:42:23.259Z,21.30
2022-09-17T01:45:09.553Z,21.30
2022-09-17T01:47:45.876Z,21.30
2022-09-17T01:50:22.273Z,21.30
2022-09-17T01:52:52.799Z,21.30
2022-09-17T01:55:22.884Z,21.30
2022-09-17T01:57:58.169Z,21.30
2022-09-17T02:00:25.312Z,21.30
2022-09-17T02:03:01.522Z,21.30
2022-09-17T02:05:31.582Z,21.30
2022-09-17T02:08:09.191Z,21.30
2022-09-17T02:10:44.951Z,21.30
2022-09-17T02:13:44.782Z,21.30
2022-09-17T02:16:26.088Z,21.30
2022-09-17T02:19:01.740Z,21.30
2022-09-17T02:21:53.000Z,21.30
2022-09-17T02:24:27.196Z,21.30
2022-09-17T02:27:18.755Z,21.30
2022-09-17T02:29:46.162Z,21.20
2022-09-17T02:32:13.817Z,21.30
2022-09-17T02:34:41.447Z,21.30
2022-09-17T02:37:08.886Z,21.20
2022-09-17T02:39:36.255Z,21.20
2022-09-17T02:42:34.663Z,21.30
2022-09-17T02:45:28.621Z,21.20
2022-09-17T02:48:24.683Z,21.20
2022-09-17T02:51:23.896Z,21.20
2022-09-17T02:54:14.031Z,21.20
2022-09-17T02:56:57.753Z,21.20
2022-09-17T02:59:38.378Z,21.20
2022-09-17T03:02:26.318Z,21.20
2022-09-17T03:04:54.031Z,21.20
2022-09-17T03:07:23.139Z,21.20
2022-09-17T03:09:50.167Z,21.20
2022-09-17T03:12:17.384Z,21.20
2022-09-17T03:14:44.370Z,21.20
2022-09-17T03:17:12.497Z,21.20
2022-09-17T03:19:39.404Z,21.20
2022-09-17T03:22:06.354Z,21.20
2022-09-17T03:24:33.208Z,21.20
2022-09-17T03:27:00.304Z,21.20
2022-09-17T03:29:27.278Z,21.20
2022-09-17T03:31:54.225Z,21.20
2022-09-17T03:34:21.618Z,21.20
2022-09-17T03:36:48.567Z,21.20
2022-09-17T03:39:15.650Z,21.20
2022-09-17T03:41:42.491Z,21.20
2022-09-17T03:44:10.707Z,21.20
2022-09-17T03:46:37.938Z,21.20
2022-09-17T03:49:04.945Z,21.20
2022-09-17T03:51:31.919Z,21.20
2022-09-17T03:53:58.853Z,21.20
2022-09-17T03:56:26.814Z,21.20
2022-09-17T03:58:58.431Z,21.20
2022-09-17T04:01:25.863Z,21.20
2022-09-17T04:03:53.406Z,21.20
2022-09-17T04:06:20.672Z,21.20
2022-09-17T04:08:47.662Z,21.20
2022-09-17T04:11:14.784Z,21.20
2022-09-17T04:13:41.929Z,21.20
2022-09-17T04:16:09.056Z,21.20
2022-09-17T04:18:36.088Z,21.20
2022-09-17T04:21:03.865Z,21.20
2022-09-17T04:23:30.814Z,21.20
2022-09-17T04:25:57.914Z,21.20
2022-09-17T04:28:24.920Z,21.20
2022-09-17T04:30:51.904Z,21.20
2022-09-17T04:33:18.943Z,21.20
2022-09-17T04:35:45.969Z,21.20
2022-09-17T04:38:18.461Z,21.20
2022-09-17T04:40:46.751Z,21.10
2022-09-17T04:43:14.213Z,21.20
2022-09-17T04:45:41.221Z,21.10
2022-09-17T04:48:08.167Z,21.10
2022-09-17T04:50:35.178Z,21.10
2022-09-17T04:54:14.938Z,21.20
2022-09-17T04:56:41.894Z,21.20
2022-09-17T04:59:09.042Z,21.10
2022-09-17T05:01:35.906Z,21.10
2022-09-17T05:04:03.061Z,21.10
2022-09-17T05:06:29.927Z,21.10
2022-09-17T05:08:57.004Z,21.10
2022-09-17T05:11:23.890Z,21.10
2022-09-17T05:13:50.816Z,21.10
2022-09-17T05:16:17.774Z,21.10
2022-09-17T05:18:44.664Z,21.10
2022-09-17T05:21:11.700Z,21.10
2022-09-17T05:23:38.814Z,21.10
2022-09-17T05:26:05.863Z,21.10
2022-09-17T05:28:32.799Z,21.10
2022-09-17T05:31:00.804Z,21.10
2022-09-17T05:33:28.333Z,21.10
2022-09-17T05:35:55.602Z,21.10
2022-09-17T05:38:22.826Z,21.10
2022-09-17T05:40:49.892Z,21.10
2022-09-17T05:43:16.916Z,21.10
2022-09-17T05:45:44.240Z,21.10
2022-09-17T05:48:15.652Z,21.10
2022-09-17T05:50:42.699Z,21.10
2022-09-17T05:53:12.766Z,21.10
2022-09-17T05:55:40.748Z,21.10
2022-09-17T05:58:16.179Z,21.10
2022-09-17T06:00:44.088Z,21.10
2022-09-17T06:03:12.522Z,21.10
2022-09-17T06:05:40.178Z,21.10
2022-09-17T06:08:07.293Z,21.10
2022-09-17T06:10:37.712Z,21.10
2022-09-17T06:13:04.834Z,21.10
2022-09-17T06:15:31.761Z,21.10
2022-09-17T06:17:58.681Z,21.10
2022-09-17T06:20:25.620Z,21.10
2022-09-17T06:22:59.138Z,21.10
2022-09-17T06:25:26.795Z,21.10
2022-09-17T06:27:53.898Z,21.10
2022-09-17T06:30:21.419Z,21.10
2022-09-17T06:32:48.399Z,21.10
2022-09-17T06:35:15.359Z,21.10
2022-09-17T06:37:42.427Z,21.10
2022-09-17T06:40:09.889Z,21.10
2022-09-17T06:42:36.771Z,21.10
2022-09-17T06:45:08.553Z,21.10
2022-09-17T06:47:37.240Z,21.10
2022-09-17T06:50:04.471Z,21.20
2022-09-17T06:52:31.361Z,21.20
2022-09-17T06:54:58.250Z,21.20
2022-09-17T06:57:25.288Z,21.20
2022-09-17T06:59:52.232Z,21.20
2022-09-17T07:02:19.158Z,21.20
2022-09-17T07:04:46.247Z,21.20
2022-09-17T07:07:13.300Z,21.20
2022-09-17T07:09:40.281Z,21.20
2022-09-17T07:12:08.423Z,21.30
2022-09-17T07:14:35.388Z,21.30
2022-09-17T07:17:03.404Z,21.30
2022-09-17T07:19:30.441Z,21.30
2022-09-17T07:21:57.449Z,21.30
2022-09-17T07:24:24.437Z,21.30
2022-09-17T07:26:51.883Z,21.30
2022-09-17T07:29:19.059Z,21.30
2022-09-17T07:31:46.216Z,21.30
2022-09-17T07:34:13.241Z,21.30
2022-09-17T07:36:40.189Z,21.30
2022-09-17T07:39:07.227Z,21.30
2022-09-17T07:41:34.957Z,21.30
2022-09-17T07:44:03.061Z,21.30
2022-09-17T07:46:30.384Z,21.30
2022-09-17T07:48:57.410Z,21.30
2022-09-17T07:51:27.939Z,21.30
2022-09-17T07:53:56.720Z,21.30
2022-09-17T07:56:24.667Z,21.30
2022-09-17T07:58:52.294Z,21.30
2022-09-17T08:01:21.340Z,21.30
2022-09-17T08:03:52.821Z,21.20
2022-09-17T08:06:22.725Z,21.30
2022-09-17T08:08:50.474Z,21.30
2022-09-17T08:14:10.668Z,21.20
2022-09-17T08:16:37.986Z,21.30
2022-09-17T08:19:05.065Z,21.30
2022-09-17T08:21:32.169Z,21.20
2022-09-17T08:23:59.447Z,21.20
2022-09-17T08:26:27.064Z,21.20
2022-09-17T08:28:56.591Z,21.20
2022-09-17T08:31:26.941Z,21.20
2022-09-17T08:33:53.986Z,21.00
2022-09-17T08:36:26.349Z,20.80
2022-09-17T08:38:54.887Z,20.80
2022-09-17T08:41:37.420Z,20.70
2022-09-17T08:44:04.946Z,20.70
2022-09-17T08:46:39.171Z,20.40
2022-09-17T08:49:22.029Z,19.90
2022-09-17T08:51:59.878Z,19.70
2022-09-17T08:54:39.008Z,19.50
2022-09-17T08:57:27.324Z,19.40
2022-09-17T08:59:57.320Z,19.30
2022-09-17T09:02:38.295Z,19.20
2022-09-17T09:05:23.009Z,19.10
2022-09-17T09:07:56.314Z,19.00
2022-09-17T09:10:32.884Z,18.90
2022-09-17T09:13:01.613Z,18.90
2022-09-17T09:15:35.806Z,18.90
2022-09-17T09:18:19.756Z,19.30
2022-09-17T09:20:53.651Z,19.60
2022-09-17T09:23:24.939Z,19.80
2022-09-17T09:26:04.632Z,20.00
2022-09-17T09:28:43.684Z,20.10
2022-09-17T09:31:46.081Z,20.10
2022-09-17T09:34:15.204Z,20.20
2022-09-17T09:36:42.340Z,20.30
2022-09-17T09:39:41.225Z,20.40
2022-09-17T09:42:16.885Z,20.40
2022-09-17T09:44:43.909Z,20.50
2022-09-17T09:47:39.343Z,20.50
2022-09-17T09:50:24.703Z,20.60
2022-09-17T09:53:13.717Z,20.60
2022-09-17T09:55:49.666Z,20.60
2022-09-17T09:58:31.646Z,20.70
2022-09-17T10:00:58.809Z,20.80
2022-09-17T10:03:32.619Z,20.80
2022-09-17T10:06:07.275Z,20.80
2022-09-17T10:08:39.755Z,20.80
2022-09-17T10:11:17.284Z,20.90
2022-09-17T10:13:44.245Z,20.90
2022-09-17T10:16:29.510Z,20.90
2022-09-17T10:19:17.705Z,21.00
2022-09-17T10:21:44.698Z,21.00
2022-09-17T10:24:33.998Z,21.00
2022-09-17T10:27:03.997Z,21.00
2022-09-17T10:29:34.592Z,21.00
2022-09-17T10:32:02.876Z,21.10
2022-09-17T10:34:31.768Z,21.10
2022-09-17T10:36:59.131Z,21.10
2022-09-17T10:39:46.414Z,21.10
2022-09-17T10:42:14.544Z,21.10
2022-09-17T10:44:59.172Z,21.20
2022-09-17T10:47:31.860Z,21.10
2022-09-17T10:50:02.947Z,21.20
2022-09-17T10:52:39.500Z,21.20
2022-09-17T10:55:33.638Z,21.20
2022-09-17T10:58:07.560Z,21.20
2022-09-17T11:00:52.949Z,21.20
2022-09-17T11:03:42.028Z,21.20
2022-09-17T11:06:21.033Z,21.30
2022-09-17T11:09:16.402Z,21.30
2022-09-17T11:11:49.413Z,21.30
2022-09-17T11:14:40.940Z,21.30
2022-09-17T11:17:47.036Z,21.30
2022-09-17T11:20:49.350Z,21.20
2022-09-17T11:23:37.381Z,21.30
2022-09-17T11:26:07.188Z,21.30
2022-09-17T11:28:58.980Z,21.30
2022-09-17T11:31:50.117Z,21.30
2022-09-17T11:34:23.824Z,21.30
2022-09-17T11:37:20.405Z,21.30
2022-09-17T11:39:55.392Z,21.30
2022-09-17T11:42:31.190Z,21.30
2022-09-17T11:45:11.945Z,21.30
2022-09-17T11:48:05.980Z,21.30
2022-09-17T11:50:41.207Z,21.40
2022-09-17T11:53:32.517Z,21.40
2022-09-17T11:56:23.281Z,21.40
2022-09-17T11:59:12.994Z,21.40
2022-09-17T12:01:51.606Z,21.30
2022-09-17T12:04:32.688Z,21.40
2022-09-17T12:07:34.671Z,21.40
2022-09-17T12:10:35.861Z,21.40
2022-09-17T14:04:52.713Z,21.20
2022-09-17T14:07:30.790Z,21.20
2022-09-17T14:10:18.659Z,21.30
2022-09-17T14:12:54.829Z,21.30
2022-09-17T14:16:00.440Z,21.30
2022-09-17T14:18:27.619Z,21.30
2022-09-17T14:21:09.887Z,21.30
2022-09-17T14:23:44.806Z,21.30
2022-09-17T14:26:39.700Z,21.30
2022-09-17T14:29:35.081Z,21.30
2022-09-17T14:32:05.478Z,21.30
2022-09-17T14:35:37.511Z,21.30
2022-09-17T14:38:19.157Z,21.30
2022-09-17T14:40:49.468Z,21.30
2022-09-17T14:43:54.143Z,21.30
2022-09-17T15:12:08.987Z,21.30
2022-09-17T15:14:39.153Z,21.30
2022-09-17T15:17:07.365Z,21.20
2022-09-17T15:19:41.273Z,21.30
2022-09-17T15:22:33.413Z,21.20
2022-09-17T15:25:17.516Z,21.30
2022-09-17T15:27:46.715Z,21.30
2022-09-17T15:30:20.196Z,21.30
2022-09-17T15:33:01.327Z,21.30
2022-09-17T15:35:33.975Z,21.30
2022-09-17T15:38:22.194Z,21.30
2022-09-17T15:40:50.430Z,21.20
2022-09-17T15:43:34.368Z,21.30
2022-09-17T15:46:26.739Z,21.30
2022-09-17T15:48:59.475Z,21.30
2022-09-17T15:51:32.433Z,21.30
2022-09-17T15:54:01.858Z,21.30
2022-09-17T15:56:40.718Z,21.30
2022-09-17T15:59:23.206Z,21.30
2022-09-17T16:01:53.577Z,21.30
2022-09-17T16:04:23.116Z,21.30
2022-09-17T16:06:55.226Z,21.30
2022-09-17T16:09:37.280Z,21.30
2022-09-17T16:12:04.371Z,21.30
2022-09-17T16:14:31.312Z,21.30
2022-09-17T16:16:59.838Z,21.30
2022-09-17T16:19:26.937Z,21.30
2022-09-17T16:21:54.034Z,21.30
2022-09-17T16:24:21.173Z,21.30
2022-09-17T16:26:48.105Z,21.30
2022-09-17T16:29:17.338Z,21.30
2022-09-17T16:31:45.084Z,21.30
2022-09-17T16:34:12.170Z,21.30
2022-09-17T16:36:39.367Z,21.30
2022-09-17T16:39:06.408Z,21.30
2022-09-17T16:41:33.545Z,21.30
2022-09-17T16:44:00.716Z,21.30
2022-09-17T16:46:27.811Z,21.30
2022-09-17T16:48:54.776Z,21.30
2022-09-17T16:51:21.882Z,21.30
2022-09-17T16:53:50.293Z,21.30
2022-09-17T16:56:17.859Z,21.30
2022-09-17T16:58:44.885Z,21.30
2022-09-17T17:01:14.565Z,21.30
2022-09-17T17:03:42.309Z,21.30
2022-09-17T17:06:20.425Z,21.30
2022-09-17T17:08:50.434Z,21.30
2022-09-17T17:11:18.605Z,21.30
2022-09-17T17:13:46.159Z,21.30
2022-09-17T17:16:15.217Z,21.30
2022-09-17T17:18:46.236Z,21.30
2022-09-17T17:21:14.788Z,21.30
2022-09-17T17:26:31.238Z,21.30
2022-09-17T17:31:05.681Z,21.30
2022-09-17T17:33:33.220Z,21.40
2022-09-17T17:36:07.308Z,21.30
2022-09-17T17:38:35.806Z,21.40
2022-09-17T17:41:11.331Z,21.40
2022-09-17T17:43:38.449Z,21.40
2022-09-17T17:46:08.088Z,21.50
2022-09-17T17:48:35.753Z,21.50
2022-09-17T17:51:05.159Z,21.50
2022-09-17T17:53:32.194Z,21.50
2022-09-17T17:56:01.440Z,21.50
2022-09-17T17:58:29.101Z,21.50
2022-09-17T18:00:56.567Z,21.60
2022-09-17T18:03:27.152Z,21.60
2022-09-17T18:05:56.987Z,21.60
2022-09-17T18:08:24.867Z,21.60
2022-09-17T18:10:56.250Z,21.60
2022-09-17T18:13:24.398Z,21.70
2022-09-17T18:15:56.723Z,21.70
2022-09-17T18:18:25.096Z,21.70
2022-09-17T18:20:54.048Z,21.70
2022-09-17T18:23:21.303Z,21.70
2022-09-17T18:25:59.438Z,21.70
2022-09-17T18:28:27.840Z,21.80
2022-09-17T18:30:55.744Z,21.80
2022-09-17T18:33:27.880Z,21.80
2022-09-17T18:35:57.629Z,21.80
2022-09-17T18:38:25.097Z,21.80
2022-09-17T18:40:52.834Z,21.80
2022-09-17T18:43:20.028Z,21.80
2022-09-17T18:45:58.014Z,21.80
2022-09-17T18:48:25.511Z,21.90
2022-09-17T18:51:00.815Z,21.80
2022-09-17T18:53:29.440Z,21.90
2022-09-17T18:56:00.246Z,21.90
2022-09-17T18:58:27.217Z,21.90
2022-09-17T19:00:54.222Z,21.80
2022-09-17T19:03:21.244Z,21.90
2022-09-17T19:05:48.179Z,21.90
2022-09-17T19:08:15.299Z,21.90
2022-09-17T19:10:42.255Z,21.80
2022-09-17T19:13:09.246Z,21.90
2022-09-17T19:15:36.478Z,21.90
2022-09-17T19:18:03.625Z,21.90
2022-09-17T19:20:36.286Z,21.90
2022-09-17T19:23:04.783Z,21.90
2022-09-17T19:25:32.790Z,21.90
2022-09-17T19:27:59.737Z,21.90
2022-09-17T19:30:27.260Z,21.90
2022-09-17T19:32:54.242Z,21.90
2022-09-17T19:35:21.442Z,22.00
2022-09-17T19:37:48.371Z,22.00
2022-09-17T19:40:15.488Z,21.90
2022-09-17T19:42:42.616Z,22.00
2022-09-17T19:45:10.219Z,22.00
2022-09-17T19:47:37.382Z,21.90
2022-09-17T19:50:04.605Z,21.90
2022-09-17T19:52:31.648Z,21.90
2022-09-17T19:54:58.669Z,21.90
2022-09-17T19:57:25.903Z,21.90
2022-09-17T19:59:52.867Z,21.90
2022-09-17T20:02:19.992Z,21.90
2022-09-17T20:04:47.220Z,22.00
2022-09-17T20:07:14.209Z,22.00
2022-09-17T20:09:41.184Z,22.00
2022-09-17T20:12:08.125Z,22.00
2022-09-17T20:14:35.162Z,21.90
2022-09-17T20:17:02.104Z,21.90
2022-09-17T20:19:29.136Z,22.00
2022-09-17T20:21:56.290Z,22.00
2022-09-17T20:24:23.409Z,21.90
2022-09-17T20:26:50.373Z,21.90
2022-09-17T20:29:17.575Z,21.90
2022-09-17T20:31:44.576Z,22.00
2022-09-17T20:34:12.512Z,21.90
2022-09-17T20:36:39.650Z,21.90
2022-09-17T20:39:22.300Z,22.00
2022-09-17T20:41:50.222Z,21.90
2022-09-17T20:44:18.110Z,21.90
2022-09-17T20:46:45.182Z,21.90
2022-09-17T20:49:12.193Z,21.90
2022-09-17T20:51:39.365Z,21.90
2022-09-17T20:54:08.100Z,21.90
2022-09-17T20:56:35.720Z,21.90
2022-09-17T20:59:13.207Z,21.90
2022-09-17T21:01:45.566Z,21.90
2022-09-17T21:04:19.510Z,21.90
2022-09-17T21:06:47.915Z,21.90
2022-09-17T21:09:18.094Z,21.90
2022-09-17T21:11:47.123Z,21.90
2022-09-17T21:14:18.621Z,21.90
2022-09-17T21:16:46.600Z,21.90
2022-09-17T21:19:16.349Z,21.90
2022-09-17T21:21:43.908Z,21.90
2022-09-17T21:24:10.998Z,21.90
2022-09-17T21:26:38.174Z,21.90
2022-09-17T21:29:05.179Z,21.90
2022-09-17T21:31:34.461Z,21.90
2022-09-17T21:34:03.800Z,21.90
2022-09-17T21:36:34.012Z,21.80
2022-09-17T21:39:16.691Z,21.80
2022-09-17T21:41:44.990Z,21.80
2022-09-17T21:44:13.287Z,21.90
2022-09-17T21:46:41.259Z,21.80
2022-09-17T21:49:08.654Z,21.70
2022-09-17T21:51:39.660Z,21.70
2022-09-17T21:54:12.586Z,21.70
2022-09-17T21:56:39.852Z,21.70
2022-09-17T21:59:09.360Z,21.70
2022-09-17T22:01:41.938Z,21.60
2022-09-17T22:04:11.300Z,21.60
2022-09-17T22:06:38.564Z,21.60
2022-09-17T22:09:07.936Z,21.60
2022-09-17T22:11:37.383Z,21.50
2022-09-17T22:14:11.410Z,21.50
2022-09-17T22:16:44.529Z,21.50
2022-09-17T22:19:15.045Z,21.50
2022-09-17T22:21:46.172Z,21.40
2022-09-17T22:24:14.465Z,21.40
2022-09-17T22:26:43.956Z,21.40
2022-09-17T22:29:17.470Z,21.40
2022-09-17T22:31:45.337Z,21.40
2022-09-17T22:34:15.423Z,21.30
2022-09-17T22:36:42.758Z,21.30
2022-09-17T22:39:10.558Z,21.30
2022-09-17T22:41:44.519Z,21.30
2022-09-17T22:44:17.897Z,21.30
2022-09-17T22:46:46.911Z,21.30
2022-09-17T22:49:14.518Z,21.20
2022-09-17T22:51:42.663Z,21.30
2022-09-17T22:54:14.880Z,21.20
2022-09-17T22:56:42.343Z,21.20
2022-09-17T22:59:09.524Z,21.20
2022-09-17T23:01:37.836Z,21.20
2022-09-17T23:04:06.232Z,21.20
2022-09-17T23:06:36.610Z,21.20
2022-09-17T23:09:04.722Z,21.10
2022-09-17T23:11:34.109Z,21.10
2022-09-17T23:14:03.559Z,21.10
2022-09-17T23:16:44.086Z,21.10
2022-09-17T23:19:11.952Z,21.10
2022-09-17T23:21:39.551Z,21.10
2022-09-17T23:24:06.751Z,21.10
2022-09-17T23:26:33.962Z,21.10
2022-09-17T23:29:05.213Z,21.10
2022-09-17T23:31:35.162Z,21.10
2022-09-17T23:34:02.576Z,21.00
2022-09-17T23:36:31.851Z,21.10
2022-09-17T23:38:59.605Z,21.00
2022-09-17T23:41:29.382Z,21.00
2022-09-17T23:43:58.544Z,21.00
2022-09-17T23:46:28.703Z,21.00
2022-09-17T23:48:55.811Z,21.00
2022-09-17T23:51:24.462Z,21.00
2022-09-17T23:53:51.775Z,21.00
2022-09-17T23:56:24.206Z,21.00
2022-09-17T23:58:51.988Z,21.00
